Time;durP1;ratioP1;P1;durP2;ratioP2;P2;SDS_P1;SDS_P2;PMS_P1;PMS_P2;Temp;Humidity;BMP_temperature;BMP_pressure;BME280_temperature;BME280_humidity;BME280_pressure;Samples;Min_cycle;Max_cycle;Signal;HPM_P1;HPM_P2
2023/10/03 00:02:05;;;;;;;14.57;9.00;;;21.80;66.70;;;;;;5008072;28;20965;-51
2023/10/03 00:04:34;;;;;;;11.37;8.90;;;21.80;66.60;;;;;;5008367;28;20523;-52
2023/10/03 00:07:02;;;;;;;13.50;9.37;;;21.80;66.70;;;;;;5005892;28;20533;-53
2023/10/03 00:09:32;;;;;;;18.60;11.30;;;21.80;66.80;;;;;;5010823;28;20433;-51
2023/10/03 00:12:01;;;;;;;13.80;9.00;;;21.80;66.70;;;;;;5008652;28;20499;-51
2023/10/03 00:14:30;;;;;;;12.70;7.97;;;21.80;66.50;;;;;;5007376;28;21036;-54
2023/10/03 00:16:59;;;;;;;12.20;8.53;;;21.80;66.40;;;;;;5012082;28;20500;-49
2023/10/03 00:19:27;;;;;;;15.20;8.67;;;21.80;66.30;;;;;;5008674;28;20825;-52
2023/10/03 00:21:55;;;;;;;15.40;9.70;;;21.80;66.20;;;;;;5005050;28;20449;-51
2023/10/03 00:24:23;;;;;;;13.07;8.50;;;21.80;66.00;;;;;;5008360;28;20460;-51
2023/10/03 00:26:53;;;;;;;11.90;7.63;;;21.80;66.00;;;;;;5007022;28;20425;-51
2023/10/03 00:29:23;;;;;;;14.33;8.43;;;21.80;66.00;;;;;;5007639;28;20777;-51
2023/10/03 00:31:53;;;;;;;11.33;7.70;;;21.80;65.90;;;;;;5005778;28;20447;-52
2023/10/03 00:34:23;;;;;;;13.07;7.80;;;21.80;65.70;;;;;;5008398;28;20468;-51
2023/10/03 00:36:54;;;;;;;12.37;7.30;;;21.80;65.60;;;;;;4995963;28;20468;-54
2023/10/03 00:39:22;;;;;;;13.07;8.30;;;21.80;65.70;;;;;;5010824;28;20543;-50
2023/10/03 00:41:51;;;;;;;9.90;7.50;;;21.80;65.70;;;;;;5009249;28;20456;-51
2023/10/03 00:44:20;;;;;;;10.93;7.50;;;21.80;66.00;;;;;;5006248;28;20469;-50
2023/10/03 00:46:48;;;;;;;10.57;6.87;;;21.80;65.80;;;;;;5009932;28;20688;-52
2023/10/03 00:49:19;;;;;;;10.60;6.93;;;21.80;65.90;;;;;;5008241;28;20455;-52
2023/10/03 00:51:49;;;;;;;12.30;8.10;;;21.80;66.10;;;;;;4990539;28;22528;-51
2023/10/03 00:54:17;;;;;;;11.20;7.00;;;21.80;65.70;;;;;;5005809;28;20807;-51
2023/10/03 00:56:47;;;;;;;9.13;7.20;;;21.80;65.70;;;;;;5010206;28;20469;-51
2023/10/03 00:59:15;;;;;;;10.70;8.00;;;21.80;65.90;;;;;;5003933;28;20474;-51
2023/10/03 01:01:46;;;;;;;15.00;8.67;;;21.80;66.90;;;;;;5008236;28;20500;-52
2023/10/03 01:04:19;;;;;;;12.50;7.33;;;21.80;66.10;;;;;;5007928;28;20467;-49
2023/10/03 01:06:49;;;;;;;11.30;7.17;;;21.80;66.00;;;;;;4992275;28;20495;-51
2023/10/03 01:09:29;;;;;;;12.60;7.00;;;21.80;65.90;;;;;;5006897;28;20445;-51
2023/10/03 01:11:57;;;;;;;13.40;7.10;;;21.80;66.10;;;;;;5007859;28;20864;-52
2023/10/03 01:14:26;;;;;;;10.57;7.50;;;21.80;66.00;;;;;;4991343;28;20563;-51
2023/10/03 01:16:56;;;;;;;11.77;8.10;;;21.80;66.20;;;;;;5005789;28;20463;-52
2023/10/03 01:19:29;;;;;;;13.17;7.60;;;21.80;66.00;;;;;;5006641;28;20432;-48
2023/10/03 01:21:59;;;;;;;13.33;8.47;;;21.80;65.70;;;;;;5003172;28;20448;-49
2023/10/03 01:24:29;;;;;;;11.47;7.33;;;21.80;65.60;;;;;;5007021;28;20472;-52
2023/10/03 01:26:57;;;;;;;12.20;7.50;;;21.80;65.90;;;;;;5005299;28;20524;-52
2023/10/03 01:29:25;;;;;;;11.60;7.63;;;21.80;65.70;;;;;;5005666;28;20897;-51
2023/10/03 01:31:54;;;;;;;9.23;6.40;;;21.80;65.60;;;;;;5008483;28;20524;-51
2023/10/03 01:34:22;;;;;;;11.43;7.27;;;21.80;66.10;;;;;;4996165;28;20456;-51
2023/10/03 01:36:52;;;;;;;11.73;7.60;;;21.80;66.00;;;;;;5001805;28;20949;-50
2023/10/03 01:39:23;;;;;;;11.73;7.97;;;21.80;66.00;;;;;;5008153;28;20433;-51
2023/10/03 01:41:53;;;;;;;9.67;7.23;;;21.80;66.10;;;;;;4997563;28;20468;-51
2023/10/03 01:44:22;;;;;;;12.03;7.97;;;21.80;66.10;;;;;;5002372;28;20520;-51
2023/10/03 01:46:51;;;;;;;12.80;8.00;;;21.80;66.00;;;;;;4996498;28;21014;-51
2023/10/03 01:49:19;;;;;;;9.77;7.47;;;21.80;65.80;;;;;;4993363;28;20448;-51
2023/10/03 01:51:47;;;;;;;11.97;8.20;;;21.80;66.10;;;;;;5004620;28;20456;-54
2023/10/03 01:54:16;;;;;;;10.97;6.97;;;21.80;65.80;;;;;;4996272;28;20627;-51
2023/10/03 01:56:44;;;;;;;10.70;7.50;;;21.80;66.00;;;;;;4995781;28;20460;-51
2023/10/03 01:59:16;;;;;;;11.50;7.67;;;21.80;65.70;;;;;;5005712;28;20950;-51
2023/10/03 02:01:44;;;;;;;11.47;7.40;;;21.80;66.00;;;;;;4988012;28;20450;-54
2023/10/03 02:04:13;;;;;;;12.23;7.77;;;21.80;65.90;;;;;;5006204;28;20813;-51
2023/10/03 02:06:41;;;;;;;11.50;7.80;;;21.80;65.90;;;;;;5004107;28;20441;-50
2023/10/03 02:09:10;;;;;;;12.33;9.00;;;21.80;65.70;;;;;;5005746;28;20455;-51
2023/10/03 02:11:38;;;;;;;12.97;9.20;;;21.80;65.90;;;;;;5006665;28;20475;-52
2023/10/03 02:14:08;;;;;;;14.00;9.77;;;21.80;66.00;;;;;;4992627;28;21056;-50
2023/10/03 02:16:43;;;;;;;13.60;11.13;;;21.80;65.80;;;;;;5005474;28;20508;-51
2023/10/03 02:19:12;;;;;;;15.87;10.47;;;21.80;65.90;;;;;;4995398;28;20964;-51
2023/10/03 02:21:42;;;;;;;17.00;11.73;;;21.80;65.80;;;;;;5004512;28;20540;-52
2023/10/03 02:24:12;;;;;;;20.53;15.30;;;21.80;65.90;;;;;;5007879;28;20533;-51
2023/10/03 02:26:44;;;;;;;17.97;12.30;;;21.80;65.90;;;;;;5008740;28;20441;-52
2023/10/03 02:29:12;;;;;;;22.47;17.53;;;21.80;66.10;;;;;;4993294;28;20483;-51
2023/10/03 02:31:43;;;;;;;18.07;12.27;;;21.80;66.00;;;;;;4993087;28;20826;-51
2023/10/03 02:34:11;;;;;;;14.33;11.17;;;21.80;66.20;;;;;;5007194;28;20464;-51
2023/10/03 02:36:39;;;;;;;17.50;15.60;;;21.80;66.10;;;;;;4987573;28;20475;-51
2023/10/03 02:39:09;;;;;;;23.30;15.80;;;21.80;66.00;;;;;;5005967;28;20465;-51
2023/10/03 02:41:39;;;;;;;26.50;19.70;;;21.80;65.80;;;;;;4988736;28;21013;-51
2023/10/03 02:44:13;;;;;;;16.80;13.90;;;21.80;65.60;;;;;;5003956;28;20477;-51
2023/10/03 02:46:45;;;;;;;17.50;15.10;;;21.80;65.90;;;;;;5005311;28;20476;-51
2023/10/03 02:49:14;;;;;;;14.90;11.23;;;21.80;65.90;;;;;;4990020;28;20977;-51
2023/10/03 02:51:43;;;;;;;17.30;14.03;;;21.80;65.90;;;;;;4995641;28;20510;-52
2023/10/03 02:54:12;;;;;;;18.50;14.67;;;21.80;65.80;;;;;;5007121;28;20821;-50
2023/10/03 02:56:40;;;;;;;18.73;14.20;;;21.80;65.70;;;;;;5006830;28;20487;-50
2023/10/03 02:59:08;;;;;;;19.70;15.60;;;21.80;65.60;;;;;;5003686;28;20480;-51
2023/10/03 03:01:38;;;;;;;18.90;16.90;;;21.80;65.70;;;;;;4985634;28;20715;-50
2023/10/03 03:04:12;;;;;;;18.90;14.77;;;21.80;65.60;;;;;;4987458;28;20519;-51
2023/10/03 03:06:41;;;;;;;15.90;13.27;;;21.80;65.60;;;;;;4988850;28;20444;-52
2023/10/03 03:09:18;;;;;;;16.27;12.13;;;21.80;65.60;;;;;;4989362;28;21061;-51
2023/10/03 03:11:48;;;;;;;16.00;11.83;;;21.80;65.60;;;;;;5011131;28;21011;-51
2023/10/03 03:14:18;;;;;;;17.87;13.47;;;21.80;65.80;;;;;;4997685;28;20552;-51
2023/10/03 03:16:48;;;;;;;15.17;10.93;;;21.70;65.70;;;;;;5010103;28;20469;-52
2023/10/03 03:19:19;;;;;;;13.40;11.80;;;21.70;65.60;;;;;;5012073;28;20425;-51
2023/10/03 03:21:47;;;;;;;15.33;11.00;;;21.80;66.10;;;;;;5005874;28;20456;-51
2023/10/03 03:24:17;;;;;;;15.33;11.43;;;21.80;65.60;;;;;;5012550;28;20461;-53
2023/10/03 03:26:47;;;;;;;16.50;11.30;;;21.70;66.00;;;;;;5010241;28;20468;-52
2023/10/03 03:29:31;;;;;;;16.33;10.60;;;21.80;66.30;;;;;;5003569;28;20731;-49
2023/10/03 03:32:00;;;;;;;14.60;11.80;;;21.70;66.00;;;;;;5007130;28;20444;-52
2023/10/03 03:34:30;;;;;;;15.63;10.90;;;21.80;66.00;;;;;;5012786;28;20452;-52
2023/10/03 03:37:20;;;;;;;11.00;9.23;;;21.80;66.10;;;;;;5003476;28;20567;-51
2023/10/03 03:39:53;;;;;;;15.37;10.53;;;21.70;66.00;;;;;;5010247;28;20525;-51
2023/10/03 03:42:22;;;;;;;14.33;10.67;;;21.70;66.20;;;;;;5001480;28;20640;-50
2023/10/03 03:44:50;;;;;;;15.00;11.07;;;21.80;66.30;;;;;;5003344;28;20980;-51
2023/10/03 03:47:19;;;;;;;15.07;10.97;;;21.80;66.30;;;;;;5007440;28;20873;-51
2023/10/03 03:49:49;;;;;;;11.93;10.73;;;21.70;66.30;;;;;;4995205;28;20542;-50
2023/10/03 03:52:18;;;;;;;14.90;11.00;;;21.70;66.30;;;;;;5009958;28;20471;-51
2023/10/03 03:54:49;;;;;;;12.53;10.07;;;21.70;66.30;;;;;;5009591;28;20453;-51
2023/10/03 03:57:17;;;;;;;13.60;9.93;;;21.70;66.40;;;;;;5008996;28;20804;-51
2023/10/03 03:59:47;;;;;;;14.33;11.07;;;21.70;67.70;;;;;;5010096;28;20818;-53
2023/10/03 04:02:15;;;;;;;15.03;10.40;;;21.70;66.50;;;;;;5005418;28;20543;-51
2023/10/03 04:04:44;;;;;;;13.17;10.60;;;21.70;66.40;;;;;;5011630;28;20977;-51
2023/10/03 04:07:14;;;;;;;13.80;11.20;;;21.70;66.50;;;;;;5007817;28;20456;-51
2023/10/03 04:09:42;;;;;;;14.53;10.37;;;21.70;66.60;;;;;;5008290;28;20926;-50
2023/10/03 04:12:13;;;;;;;13.43;9.77;;;21.70;66.50;;;;;;5008414;28;20463;-51
2023/10/03 04:14:41;;;;;;;12.27;10.07;;;21.70;66.60;;;;;;5008902;28;20456;-50
2023/10/03 04:17:11;;;;;;;11.37;8.57;;;21.70;66.50;;;;;;5002396;28;20507;-52
2023/10/03 04:19:39;;;;;;;12.07;9.90;;;21.70;66.60;;;;;;5008745;28;20436;-51
2023/10/03 04:22:07;;;;;;;13.10;9.97;;;21.70;66.60;;;;;;5008780;28;20461;-51
2023/10/03 04:24:36;;;;;;;11.57;9.10;;;21.70;66.60;;;;;;5008040;28;20953;-50
2023/10/03 04:27:05;;;;;;;13.47;9.77;;;21.70;66.60;;;;;;5007601;28;20437;-53
2023/10/03 04:29:34;;;;;;;14.17;10.30;;;21.70;66.60;;;;;;5006826;28;20429;-51
2023/10/03 04:32:02;;;;;;;13.00;9.30;;;21.70;66.80;;;;;;5007854;28;20703;-51
2023/10/03 04:34:30;;;;;;;12.13;9.57;;;21.70;67.90;;;;;;5008722;28;20480;-52
2023/10/03 04:37:00;;;;;;;11.27;9.57;;;21.70;66.80;;;;;;5004033;28;20650;-53
2023/10/03 04:39:28;;;;;;;11.70;9.17;;;21.70;66.80;;;;;;5007854;28;20437;-52
2023/10/03 04:41:58;;;;;;;12.07;9.77;;;21.70;66.80;;;;;;5004761;28;20449;-53
2023/10/03 04:44:26;;;;;;;12.93;9.77;;;21.70;66.80;;;;;;5004600;28;20527;-51
2023/10/03 04:46:54;;;;;;;12.53;9.30;;;21.70;66.80;;;;;;5012869;28;20833;-53
2023/10/03 04:49:22;;;;;;;12.00;9.20;;;21.70;66.70;;;;;;5008040;28;20813;-54
2023/10/03 04:51:50;;;;;;;11.97;9.33;;;21.70;66.80;;;;;;5002443;28;20512;-51
2023/10/03 04:54:19;;;;;;;13.10;9.67;;;21.70;66.80;;;;;;5010810;28;20465;-51
2023/10/03 04:56:48;;;;;;;12.70;9.53;;;21.70;66.80;;;;;;5010640;28;20439;-51
2023/10/03 04:59:20;;;;;;;10.93;8.70;;;21.70;66.80;;;;;;5007083;28;20615;-52
2023/10/03 05:01:49;;;;;;;9.90;8.40;;;21.70;66.90;;;;;;5010286;28;20524;-51
2023/10/03 05:04:17;;;;;;;11.60;8.67;;;21.70;66.90;;;;;;5010351;28;20519;-51
2023/10/03 05:06:47;;;;;;;12.27;8.60;;;21.70;66.80;;;;;;5004582;28;20452;-51
2023/10/03 05:09:17;;;;;;;10.43;8.27;;;21.70;66.90;;;;;;5006518;28;20817;-51
2023/10/03 05:11:48;;;;;;;12.70;9.87;;;21.70;67.00;;;;;;5011011;28;20814;-51
2023/10/03 05:14:18;;;;;;;13.90;8.67;;;21.70;66.90;;;;;;5003478;28;20599;-54
2023/10/03 05:16:50;;;;;;;10.30;8.50;;;21.70;67.00;;;;;;5008497;28;20488;-50
2023/10/03 05:19:19;;;;;;;10.83;8.63;;;21.70;67.00;;;;;;5007473;28;20469;-51
2023/10/03 05:21:47;;;;;;;10.20;9.03;;;21.70;67.10;;;;;;5002964;28;20523;-53
2023/10/03 05:24:16;;;;;;;9.50;8.23;;;21.70;67.10;;;;;;5002396;28;20835;-52
2023/10/03 05:26:44;;;;;;;10.10;8.63;;;21.70;67.10;;;;;;5006353;28;20444;-51
2023/10/03 05:29:13;;;;;;;12.30;9.47;;;21.70;67.10;;;;;;5000841;28;20460;-51
2023/10/03 05:31:42;;;;;;;10.10;7.80;;;21.70;67.20;;;;;;5008600;28;20507;-51
2023/10/03 05:34:11;;;;;;;10.90;8.77;;;21.70;67.30;;;;;;5004721;28;20487;-51
2023/10/03 05:36:39;;;;;;;11.90;8.50;;;21.60;67.20;;;;;;5001857;28;20443;-51
2023/10/03 05:39:11;;;;;;;10.53;7.40;;;21.60;67.30;;;;;;5004396;28;20572;-50
2023/10/03 05:41:41;;;;;;;11.83;8.30;;;21.60;67.30;;;;;;5009316;28;20484;-53
2023/10/03 05:44:11;;;;;;;13.63;9.40;;;21.60;67.30;;;;;;5009788;28;20508;-50
2023/10/03 05:46:42;;;;;;;12.10;8.40;;;21.70;67.80;;;;;;5004722;28;20445;-51
2023/10/03 05:49:10;;;;;;;10.70;8.23;;;21.70;67.80;;;;;;5005902;28;20465;-51
2023/10/03 05:51:39;;;;;;;12.70;8.70;;;21.60;67.60;;;;;;5003544;28;20783;-50
2023/10/03 05:54:08;;;;;;;11.57;8.33;;;21.70;67.70;;;;;;5006575;28;20954;-51
2023/10/03 05:56:37;;;;;;;12.37;8.50;;;21.60;67.50;;;;;;5005997;28;20433;-51
2023/10/03 05:59:06;;;;;;;13.13;8.47;;;21.60;67.60;;;;;;5008190;28;20895;-51
2023/10/03 06:01:35;;;;;;;11.20;9.30;;;21.60;67.60;;;;;;5005799;28;20442;-51
2023/10/03 06:04:04;;;;;;;11.53;8.67;;;21.60;67.60;;;;;;5007659;28;20476;-51
2023/10/03 06:06:33;;;;;;;11.87;7.97;;;21.60;67.70;;;;;;5002551;28;20449;-52
2023/10/03 06:09:02;;;;;;;10.80;7.47;;;21.60;67.70;;;;;;5006417;28;20488;-50
2023/10/03 06:11:31;;;;;;;11.57;9.13;;;21.60;67.60;;;;;;5006728;28;20981;-51
2023/10/03 06:13:59;;;;;;;11.20;8.67;;;21.60;67.70;;;;;;5005073;28;20475;-51
2023/10/03 06:16:28;;;;;;;12.67;8.57;;;21.60;67.70;;;;;;5007922;28;20504;-50
2023/10/03 06:18:57;;;;;;;10.03;8.10;;;21.60;67.70;;;;;;5004827;28;20476;-51
2023/10/03 06:21:27;;;;;;;12.53;8.20;;;21.60;67.70;;;;;;5002831;28;20507;-51
2023/10/03 06:23:55;;;;;;;12.10;8.07;;;21.60;67.90;;;;;;5008983;28;20484;-50
2023/10/03 06:26:23;;;;;;;10.03;7.50;;;21.60;67.90;;;;;;5003635;28;20847;-49
2023/10/03 06:28:51;;;;;;;10.47;8.03;;;21.60;67.80;;;;;;5002148;28;20536;-49
2023/10/03 06:31:20;;;;;;;8.83;7.93;;;21.60;67.80;;;;;;5006444;28;20441;-51
2023/10/03 06:33:49;;;;;;;14.93;8.03;;;21.60;67.90;;;;;;5008810;28;20471;-51
2023/10/03 06:36:18;;;;;;;12.30;7.93;;;21.60;67.90;;;;;;5003684;28;20955;-51
2023/10/03 06:38:49;;;;;;;10.27;8.60;;;21.60;68.00;;;;;;5005542;28;20473;-51
2023/10/03 06:41:21;;;;;;;10.33;8.00;;;21.60;68.00;;;;;;5006461;28;20445;-50
2023/10/03 06:43:50;;;;;;;12.30;8.00;;;21.60;68.10;;;;;;5003711;28;20655;-53
2023/10/03 06:46:18;;;;;;;10.70;8.47;;;21.60;68.00;;;;;;5004861;28;20536;-51
2023/10/03 06:48:47;;;;;;;10.33;8.03;;;21.60;68.00;;;;;;5005316;28;20461;-53
2023/10/03 06:51:16;;;;;;;10.90;8.30;;;21.60;68.00;;;;;;5000371;28;20953;-53
2023/10/03 06:53:47;;;;;;;11.37;7.63;;;21.60;68.10;;;;;;5008546;28;20539;-53
2023/10/03 06:56:16;;;;;;;12.67;8.43;;;21.60;68.10;;;;;;5006851;28;20519;-51
2023/10/03 06:58:46;;;;;;;13.10;8.47;;;21.60;68.10;;;;;;5006458;28;20465;-52
2023/10/03 07:01:14;;;;;;;9.43;7.43;;;21.60;68.20;;;;;;5002816;28;20445;-51
2023/10/03 07:03:43;;;;;;;10.67;8.00;;;21.60;68.30;;;;;;5004247;28;21099;-50
2023/10/03 07:06:12;;;;;;;13.10;8.90;;;21.60;68.20;;;;;;5003151;28;20440;-50
2023/10/03 07:08:41;;;;;;;9.80;7.67;;;21.60;68.30;;;;;;5004281;28;20475;-51
2023/10/03 07:11:16;;;;;;;8.67;7.50;;;21.60;68.30;;;;;;5006323;28;20678;-50
2023/10/03 07:13:45;;;;;;;11.90;7.50;;;21.60;68.40;;;;;;5005962;28;20507;-52
2023/10/03 07:16:15;;;;;;;10.80;7.73;;;21.60;68.40;;;;;;5009005;28;20440;-51
2023/10/03 07:18:44;;;;;;;11.43;7.83;;;21.60;68.30;;;;;;4992556;28;20583;-51
2023/10/03 07:21:15;;;;;;;10.70;8.00;;;21.60;68.30;;;;;;5003063;28;21070;-52
2023/10/03 07:23:44;;;;;;;9.20;7.60;;;21.60;68.30;;;;;;5005353;28;20476;-51
2023/10/03 07:26:13;;;;;;;9.87;8.07;;;21.60;68.20;;;;;;5007925;28;20961;-54
2023/10/03 07:28:41;;;;;;;10.10;7.83;;;21.60;68.30;;;;;;5007289;28;20476;-52
2023/10/03 07:31:13;;;;;;;9.80;7.20;;;21.60;68.70;;;;;;5003909;28;20544;-51
2023/10/03 07:33:43;;;;;;;9.40;6.90;;;21.60;68.60;;;;;;5007046;28;20483;-51
2023/10/03 07:36:13;;;;;;;8.13;6.63;;;21.60;68.60;;;;;;5004613;28;20540;-50
2023/10/03 07:38:41;;;;;;;8.77;6.70;;;21.60;68.60;;;;;;5009274;28;20486;-51
2023/10/03 07:41:10;;;;;;;12.60;6.77;;;21.60;68.70;;;;;;5006340;28;20448;-53
2023/10/03 07:43:39;;;;;;;9.30;7.20;;;21.60;68.70;;;;;;5006337;28;20491;-51
2023/10/03 07:46:07;;;;;;;7.77;6.93;;;21.50;68.50;;;;;;5005693;28;20437;-50
2023/10/03 07:48:37;;;;;;;9.73;7.40;;;21.50;68.60;;;;;;5002829;28;20531;-53
2023/10/03 07:51:05;;;;;;;10.13;6.10;;;21.50;68.40;;;;;;5005609;28;20854;-51
2023/10/03 07:53:36;;;;;;;7.70;6.17;;;21.60;68.50;;;;;;5010342;28;20569;-50
2023/10/03 07:56:08;;;;;;;7.97;5.93;;;21.50;68.40;;;;;;5007698;28;20439;-50
2023/10/03 07:58:37;;;;;;;8.77;6.67;;;21.60;68.40;;;;;;5007705;28;21049;-52
2023/10/03 08:01:05;;;;;;;10.47;7.07;;;21.50;68.40;;;;;;5010352;28;20467;-51
2023/10/03 08:03:34;;;;;;;7.90;6.40;;;21.50;68.40;;;;;;5009097;28;20475;-51
2023/10/03 08:06:04;;;;;;;9.10;6.73;;;21.50;68.40;;;;;;5008578;28;20697;-50
2023/10/03 08:08:33;;;;;;;7.43;5.40;;;21.50;68.40;;;;;;5010641;28;20488;-54
2023/10/03 08:11:06;;;;;;;6.50;5.70;;;21.50;68.40;;;;;;5011721;28;20451;-51
2023/10/03 08:13:38;;;;;;;10.20;7.20;;;21.50;68.40;;;;;;4998751;28;20981;-52
2023/10/03 08:16:07;;;;;;;7.80;6.43;;;21.60;68.50;;;;;;5007112;28;20445;-51
2023/10/03 08:18:36;;;;;;;7.13;5.60;;;21.50;68.50;;;;;;5015442;28;20479;-51
2023/10/03 08:21:08;;;;;;;7.93;6.57;;;21.50;68.50;;;;;;5010052;28;20457;-51
2023/10/03 08:23:37;;;;;;;8.30;6.00;;;21.50;68.50;;;;;;4994576;28;20474;-52
2023/10/03 08:26:05;;;;;;;8.40;6.00;;;21.50;68.60;;;;;;5008022;28;20926;-51
2023/10/03 08:28:35;;;;;;;7.00;5.73;;;21.50;68.60;;;;;;5009135;28;20522;-54
2023/10/03 08:31:07;;;;;;;7.70;6.27;;;21.50;68.70;;;;;;5004623;28;20445;-51
2023/10/03 08:33:37;;;;;;;5.50;4.77;;;21.50;68.50;;;;;;5014908;28;20510;-49
2023/10/03 08:36:14;;;;;;;7.72;5.97;;;21.60;68.60;;;;;;5003708;28;20454;-52
2023/10/03 08:38:43;;;;;;;7.07;5.30;;;21.60;69.40;;;;;;5012677;28;20220;-50
2023/10/03 08:41:16;;;;;;;7.93;6.00;;;21.50;69.30;;;;;;5011469;28;20512;-50
2023/10/03 08:43:46;;;;;;;7.97;5.30;;;21.50;69.30;;;;;;5007315;28;20461;-52
2023/10/03 08:46:16;;;;;;;7.90;5.30;;;21.60;69.50;;;;;;5009049;28;20468;-51
2023/10/03 08:48:45;;;;;;;6.83;5.13;;;21.50;69.40;;;;;;5014207;28;20456;-52
2023/10/03 08:51:17;;;;;;;5.97;4.97;;;21.60;69.50;;;;;;5006064;28;20957;-50
2023/10/03 08:53:48;;;;;;;11.70;5.83;;;21.60;69.40;;;;;;5010115;28;20475;-51
2023/10/03 08:56:19;;;;;;;6.90;5.70;;;21.50;69.60;;;;;;5008375;28;20516;-51
2023/10/03 08:58:49;;;;;;;6.07;5.47;;;21.50;69.30;;;;;;5007449;28;21006;-50
2023/10/03 09:01:19;;;;;;;7.30;5.33;;;21.50;69.70;;;;;;5008043;28;21049;-51
2023/10/03 09:03:51;;;;;;;5.50;4.63;;;21.50;69.50;;;;;;5007162;28;20457;-51
2023/10/03 09:06:23;;;;;;;6.10;5.13;;;21.50;69.50;;;;;;5004346;28;20507;-50
2023/10/03 09:09:07;;;;;;;6.77;5.10;;;21.50;69.60;;;;;;5005524;28;20465;-50
2023/10/03 09:11:37;;;;;;;8.57;5.97;;;21.50;69.50;;;;;;5005331;28;20429;-51
2023/10/03 09:14:06;;;;;;;8.77;5.50;;;21.50;69.50;;;;;;5006798;28;20489;-51
2023/10/03 09:16:38;;;;;;;7.10;5.30;;;21.50;69.70;;;;;;5008002;28;20440;-51
2023/10/03 09:19:09;;;;;;;7.03;5.80;;;21.50;69.40;;;;;;5007555;28;20461;-52
2023/10/03 09:21:39;;;;;;;7.17;5.57;;;21.60;69.80;;;;;;4989296;28;20466;-51
2023/10/03 09:24:12;;;;;;;7.27;5.87;;;21.50;69.80;;;;;;5007524;28;20464;-52
2023/10/03 09:26:51;;;;;;;5.87;4.73;;;21.50;69.60;;;;;;5006638;28;20425;-50
2023/10/03 09:29:29;;;;;;;7.70;5.33;;;21.50;69.90;;;;;;5005814;28;20468;-51
2023/10/03 09:32:07;;;;;;;7.30;5.07;;;21.50;70.00;;;;;;5006906;28;20532;-51
2023/10/03 09:34:40;;;;;;;10.37;4.93;;;21.50;70.10;;;;;;5004270;28;20527;-52
2023/10/03 09:37:10;;;;;;;8.20;5.13;;;21.50;70.50;;;;;;5000635;28;20630;-51
2023/10/03 09:39:49;;;;;;;5.40;4.90;;;21.50;74.70;;;;;;5006959;28;20476;-51
2023/10/03 09:42:23;;;;;;;6.93;4.77;;;21.30;74.60;;;;;;5001405;28;20483;-52
2023/10/03 09:44:57;;;;;;;8.23;5.20;;;21.40;74.20;;;;;;5000323;28;21052;-50
2023/10/03 09:47:30;;;;;;;5.50;4.90;;;21.40;73.80;;;;;;4993168;28;20460;-50
2023/10/03 09:50:05;;;;;;;5.53;4.90;;;21.40;73.80;;;;;;5006366;28;20459;-52
2023/10/03 09:52:37;;;;;;;5.60;5.00;;;21.40;73.60;;;;;;4996595;28;20484;-51
2023/10/03 09:55:21;;;;;;;7.63;4.77;;;21.40;73.40;;;;;;5001881;28;20476;-51
2023/10/03 09:57:54;;;;;;;7.40;4.63;;;21.40;73.10;;;;;;4999834;28;20473;-51
2023/10/03 10:00:39;;;;;;;6.90;4.23;;;21.50;73.30;;;;;;5001227;28;20477;-51
2023/10/03 10:03:12;;;;;;;8.33;5.00;;;21.50;73.00;;;;;;5000366;28;20494;-52
2023/10/03 10:05:49;;;;;;;7.10;4.63;;;21.50;72.90;;;;;;5004298;28;20444;-51
2023/10/03 10:08:29;;;;;;;6.30;4.50;;;21.50;72.70;;;;;;5000377;28;20591;-52
2023/10/03 10:11:07;;;;;;;6.00;4.83;;;21.50;72.60;;;;;;4987280;28;20453;-50
2023/10/03 10:13:37;;;;;;;5.37;4.50;;;21.60;72.60;;;;;;4986652;28;20488;-51
2023/10/03 10:16:11;;;;;;;5.50;4.33;;;21.50;72.30;;;;;;4986979;28;20813;-50
2023/10/03 10:19:00;;;;;;;5.47;4.50;;;21.60;72.10;;;;;;4994640;28;20829;-51
2023/10/03 10:21:32;;;;;;;7.07;4.93;;;21.60;71.90;;;;;;5001464;28;20469;-50
2023/10/03 10:24:36;;;;;;;5.50;4.23;;;21.60;71.90;;;;;;4992617;28;20560;-56
2023/10/03 10:27:21;;;;;;;5.97;4.97;;;21.60;72.10;;;;;;4960197;28;20464;-52
2023/10/03 10:30:00;;;;;;;4.33;3.93;;;21.60;71.70;;;;;;4983899;28;20481;-53
2023/10/03 10:32:29;;;;;;;6.83;4.50;;;21.60;71.60;;;;;;4997347;28;20488;-50
2023/10/03 10:35:01;;;;;;;5.13;3.57;;;21.60;72.90;;;;;;5007532;28;20455;-51
2023/10/03 10:37:52;;;;;;;4.70;4.10;;;21.60;72.20;;;;;;5004091;28;20559;-50
2023/10/03 10:40:27;;;;;;;7.47;4.33;;;21.60;72.10;;;;;;4994792;28;20536;-52
2023/10/03 10:43:04;;;;;;;5.13;4.20;;;21.60;72.00;;;;;;5004928;28;20522;-51
2023/10/03 10:45:39;;;;;;;7.40;4.60;;;21.60;71.90;;;;;;4994092;28;20457;-52
2023/10/03 10:48:11;;;;;;;7.70;4.33;;;21.60;72.10;;;;;;5000225;28;20476;-52
2023/10/03 10:51:16;;;;;;;5.03;4.50;;;21.60;72.00;;;;;;5001659;28;20480;-50
2023/10/03 10:53:47;;;;;;;5.33;3.93;;;21.60;71.80;;;;;;5004962;28;20480;-50
2023/10/03 10:56:17;;;;;;;5.63;4.73;;;21.60;71.90;;;;;;5001652;28;22817;-50
2023/10/03 10:58:51;;;;;;;5.63;3.77;;;21.60;71.80;;;;;;4995514;28;20487;-51
2023/10/03 11:01:19;;;;;;;7.23;3.80;;;21.60;71.70;;;;;;5004172;28;20469;-52
2023/10/03 11:03:49;;;;;;;4.63;4.07;;;21.60;71.70;;;;;;5003321;28;21052;-50
2023/10/03 11:06:18;;;;;;;5.30;4.37;;;21.60;71.50;;;;;;5001287;28;20514;-50
2023/10/03 11:08:47;;;;;;;4.50;3.43;;;21.60;71.50;;;;;;5006519;28;20472;-53
2023/10/03 11:11:19;;;;;;;4.60;4.20;;;21.60;71.20;;;;;;4979882;28;20449;-50
2023/10/03 11:13:49;;;;;;;5.13;3.93;;;21.60;71.00;;;;;;4988404;28;20561;-51
2023/10/03 11:16:25;;;;;;;4.70;3.73;;;21.60;71.10;;;;;;4992842;28;20451;-51
2023/10/03 11:18:56;;;;;;;3.60;3.30;;;21.60;71.20;;;;;;4966787;28;21945;-52
2023/10/03 11:21:25;;;;;;;4.70;3.60;;;21.60;71.20;;;;;;4998941;28;20519;-51
2023/10/03 11:24:15;;;;;;;4.97;4.30;;;21.60;71.20;;;;;;5004896;28;20479;-52
2023/10/03 11:26:57;;;;;;;5.27;3.83;;;21.60;71.10;;;;;;5010389;28;20470;-51
2023/10/03 11:29:40;;;;;;;5.70;4.00;;;21.60;71.20;;;;;;5001057;28;20465;-52
2023/10/03 11:32:19;;;;;;;3.73;3.20;;;21.60;71.20;;;;;;5002759;28;20448;-51
2023/10/03 11:34:48;;;;;;;4.63;3.50;;;21.60;71.20;;;;;;5006489;28;20839;-51
2023/10/03 11:37:44;;;;;;;6.50;3.30;;;21.60;71.20;;;;;;5009870;28;20471;-50
2023/10/03 11:40:15;;;;;;;3.87;3.40;;;21.60;71.00;;;;;;4990108;28;21467;-51
2023/10/03 11:42:50;;;;;;;3.83;2.43;;;21.60;71.10;;;;;;5006659;28;20491;-50
2023/10/03 11:45:20;;;;;;;5.10;3.33;;;21.60;71.50;;;;;;5012404;28;20456;-50
2023/10/03 11:47:59;;;;;;;4.87;2.87;;;21.60;71.80;;;;;;5011632;28;20480;-49
2023/10/03 11:50:28;;;;;;;3.00;2.60;;;21.60;72.10;;;;;;5003117;28;20433;-50
2023/10/03 11:52:57;;;;;;;3.00;2.37;;;21.50;72.50;;;;;;5011528;28;20461;-47
2023/10/03 11:55:26;;;;;;;4.20;2.93;;;21.60;72.90;;;;;;5006565;28;20548;-49
2023/10/03 11:57:56;;;;;;;4.20;2.50;;;21.50;73.30;;;;;;5010030;28;20476;-47
2023/10/03 12:00:25;;;;;;;5.53;2.30;;;21.50;73.60;;;;;;5002705;28;20459;-48
2023/10/03 12:02:53;;;;;;;5.00;2.67;;;21.50;73.60;;;;;;5007743;28;20538;-49
2023/10/03 12:05:22;;;;;;;4.57;1.90;;;21.50;74.00;;;;;;4996276;28;20491;-49
2023/10/03 12:07:51;;;;;;;2.83;2.10;;;21.40;74.20;;;;;;4991085;28;21009;-50
2023/10/03 12:10:20;;;;;;;7.27;2.27;;;21.40;74.20;;;;;;4997557;28;20441;-50
2023/10/03 12:12:48;;;;;;;4.00;2.43;;;21.40;74.40;;;;;;4992238;28;20481;-50
2023/10/03 12:15:20;;;;;;;5.20;2.20;;;21.40;74.50;;;;;;4993552;28;20444;-46
2023/10/03 12:17:52;;;;;;;8.47;2.37;;;21.40;74.80;;;;;;4993041;28;20511;-47
2023/10/03 12:20:22;;;;;;;2.80;2.37;;;21.40;74.80;;;;;;4986129;28;20452;-48
2023/10/03 12:22:52;;;;;;;5.40;1.90;;;21.30;75.00;;;;;;4992303;28;21046;-48
2023/10/03 12:25:23;;;;;;;2.83;1.93;;;21.40;75.70;;;;;;4995618;28;20456;-50
2023/10/03 12:27:51;;;;;;;5.20;2.23;;;21.40;75.60;;;;;;4993342;28;20477;-46
2023/10/03 12:30:21;;;;;;;8.00;2.27;;;21.40;75.70;;;;;;4988276;28;20457;-46
2023/10/03 12:32:51;;;;;;;10.03;2.00;;;21.40;75.20;;;;;;4989456;28;20863;-50
2023/10/03 12:35:20;;;;;;;9.50;2.30;;;21.40;75.60;;;;;;4994770;28;20441;-47
2023/10/03 12:37:49;;;;;;;3.73;1.97;;;21.30;75.40;;;;;;4993529;28;20485;-49
2023/10/03 12:40:18;;;;;;;6.70;1.90;;;21.40;75.60;;;;;;4994875;28;20955;-49
2023/10/03 12:42:48;;;;;;;3.47;1.67;;;21.30;75.70;;;;;;4987230;28;20482;-50
2023/10/03 12:45:17;;;;;;;2.33;1.63;;;21.30;75.70;;;;;;4997171;28;20441;-49
2023/10/03 12:47:48;;;;;;;6.80;1.73;;;21.30;77.00;;;;;;5001267;28;20468;-48
2023/10/03 12:50:20;;;;;;;3.30;1.50;;;21.30;75.30;;;;;;5000687;28;20473;-50
2023/10/03 12:52:49;;;;;;;4.30;1.87;;;21.30;75.60;;;;;;4998227;28;20484;-50
2023/10/03 12:55:18;;;;;;;3.60;1.90;;;21.30;75.60;;;;;;4998508;28;20453;-49
2023/10/03 12:57:48;;;;;;;1.90;1.53;;;21.30;76.00;;;;;;4995665;28;20469;-50
2023/10/03 13:00:19;;;;;;;3.63;1.87;;;21.30;76.30;;;;;;5001081;28;20955;-51